This is the latest recevied weather packets stored in our database for station/object LRBV. If no packets are shown the sender has not sent any weather packets the latest 10 day(s).
| Time | Temp. | Humidity | Pressure | Rain* | Wind** | Luminosity | Snow |
|---|---|---|---|---|---|---|---|
| 1778028528 | 7.78° C | 82% | 1014 hPa | - | - | - | - |
| 1778027713 | 7.78° C | 82% | 1014 hPa | - | - | - | - |
| 1778026731 | 8.89° C | 82% | 1014 hPa | - | - | - | - |
| 1778025831 | 8.89° C | 82% | 1014 hPa | - | - | - | - |
| 1778024931 | 11.11° C | 72% | 1014 hPa | - | - | - | - |
| 1778021331 | 12.78° C | 63% | 1014 hPa | - | - | - | - |
| 1778016831 | 12.78° C | 63% | 1014 hPa | - | - | - | - |
| 1778015031 | 13.89° C | 63% | 1014 hPa | - | - | - | - |
| 1778013230 | 13.89° C | 63% | 1014 hPa | - | - | - | - |
| 1778012362 | 15° C | 59% | 1014 hPa | - | - | - | - |
| 1778011431 | 15° C | 59% | 1014 hPa | - | - | - | - |
| 1778009630 | 17.22° C | 52% | 1014 hPa | - | - | - | - |
| 1778008731 | 17.22° C | 52% | 1014 hPa | - | - | - | - |
| 1778007830 | 17.22° C | 52% | 1014 hPa | - | - | - | - |
| 1778006931 | 17.22° C | 52% | 1014 hPa | - | - | - | - |
| 1778006031 | 17.22° C | 52% | 1014 hPa | - | - | - | - |
| 1778004231 | 16.11° C | 55% | 1013 hPa | - | - | - | - |
| 1778002430 | 21.11° C | 33% | 1013 hPa | - | - | - | - |
| 1778001530 | 22.22° C | 33% | 1013 hPa | - | - | - | - |
| 1778000631 | 22.22° C | 33% | 1013 hPa | - | - | - | - |
| 1777998831 | 22.78° C | 33% | 1013 hPa | - | - | - | - |
| 1777997931 | 23.89° C | 36% | 1013 hPa | - | - | - | - |
| 1777996131 | 22.78° C | 27% | 1013 hPa | - | - | - | - |
| 1777995231 | 22.78° C | 27% | 1013 hPa | - | - | - | - |
| 1777994339 | 23.89° C | 25% | 1013 hPa | - | - | - | - |
* Rain since midnight (hover to see other rain measurements)
** Current wind speed in m/s (hover to see current wind gust speed)